Time,TemperatureF,DewpointF,PressureIn,WindDirection,WindDirectionDegrees,WindSpeedMPH,WindSpeedGustMPH,Humidity,HourlyPrecipIn,Conditions,Clouds,dailyrainin,SoftwareType,DateUTC
2013-06-05 00:00:00,77.5,73.7,29.99,East,99,2.0,8.0,88,0.00,,BKN040,0.00,VWS V12.08,2013-06-05 04:00:00,
2013-06-05 00:04:00,77.5,73.7,29.98,ESE,116,7.0,13.0,88,0.00,,BKN040,0.00,VWS V12.08,2013-06-05 04:04:00,
2013-06-05 00:09:00,77.5,73.7,29.99,ESE,123,4.0,9.0,88,0.00,,BKN040,0.00,VWS V12.08,2013-06-05 04:09:00,
2013-06-05 00:14:00,77.5,73.7,29.98,ESE,118,5.0,9.0,88,0.00,,BKN040,0.00,VWS V12.08,2013-06-05 04:14:00,
2013-06-05 00:19:00,77.5,74.0,29.99,ESE,110,3.0,9.0,89,0.00,,BKN040,0.00,VWS V12.08,2013-06-05 04:19:00,
2013-06-05 00:24:00,77.5,74.0,29.98,East,85,7.0,9.0,89,0.00,,BKN040,0.00,VWS V12.08,2013-06-05 04:24:00,
2013-06-05 00:29:00,77.5,74.0,29.98,SE,132,4.0,9.0,89,0.00,,BKN040,0.00,VWS V12.08,2013-06-05 04:29:00,
2013-06-05 00:34:00,77.5,74.0,29.98,ESE,102,5.0,10.0,89,0.00,,BKN040,0.00,VWS V12.08,2013-06-05 04:34:00,
2013-06-05 00:39:00,77.4,74.2,29.98,ESE,113,4.0,8.0,90,0.00,,BKN040,0.00,VWS V12.08,2013-06-05 04:39:00,
2013-06-05 00:44:00,77.4,74.2,29.98,ESE,109,5.0,9.0,90,0.00,,BKN040,0.00,VWS V12.08,2013-06-05 04:44:00,
2013-06-05 00:49:00,77.3,74.1,29.98,East,96,7.0,10.0,90,0.00,,BKN040,0.00,VWS V12.08,2013-06-05 04:49:00,
2013-06-05 00:54:00,77.3,74.1,29.98,East,95,5.0,9.0,90,0.00,,BKN040,0.00,VWS V12.08,2013-06-05 04:54:00,
2013-06-05 00:59:00,77.3,74.1,29.98,ESE,104,10.0,13.0,90,0.00,,BKN040,0.00,VWS V12.08,2013-06-05 04:59:00,
2013-06-05 01:05:00,77.3,74.1,29.98,SE,144,6.0,12.0,90,0.00,,BKN040,0.00,VWS V12.08,2013-06-05 05:05:00,
2013-06-05 01:10:00,77.3,74.5,29.97,ENE,74,2.0,10.0,91,0.00,,BKN040,0.00,VWS V12.08,2013-06-05 05:10:00,
2013-06-05 01:15:00,77.2,74.4,29.97,ESE,111,7.0,8.0,91,0.00,,BKN040,0.00,VWS V12.08,2013-06-05 05:15:00,
2013-06-05 01:20:00,77.2,74.4,29.97,ESE,107,5.0,11.0,91,0.00,,BKN040,0.00,VWS V12.08,2013-06-05 05:20:00,
2013-06-05 01:25:00,77.2,74.4,29.96,East,95,5.0,12.0,91,0.00,,BKN040,0.00,VWS V12.08,2013-06-05 05:25:00,
2013-06-05 01:30:00,77.2,74.4,29.97,SE,126,3.0,10.0,91,0.00,,BKN040,0.00,VWS V12.08,2013-06-05 05:30:00,
2013-06-05 01:35:00,77.2,74.4,29.97,SE,139,4.0,11.0,91,0.00,,BKN040,0.00,VWS V12.08,2013-06-05 05:35:00,
2013-06-05 01:40:00,77.3,74.5,29.97,SE,126,6.0,8.0,91,0.00,,BKN040,0.00,VWS V12.08,2013-06-05 05:40:00,
2013-06-05 01:45:00,77.2,74.4,29.97,ESE,119,5.0,13.0,91,0.00,,BKN040,0.00,VWS V12.08,2013-06-05 05:45:00,
2013-06-05 01:59:00,77.1,74.3,29.96,ESE,123,4.0,9.0,91,0.00,,BKN040,0.00,VWS V12.08,2013-06-05 05:59:00,
2013-06-05 02:04:00,77.0,74.2,29.96,ESE,107,4.0,12.0,91,0.00,,BKN040,0.00,VWS V12.08,2013-06-05 06:04:00,
2013-06-05 02:09:00,76.9,74.1,29.96,ESE,118,5.0,8.0,91,0.00,,BKN040,0.00,VWS V12.08,2013-06-05 06:09:00,
2013-06-05 02:14:00,76.8,74.3,29.96,ESE,123,10.0,10.0,92,0.00,,BKN040,0.00,VWS V12.08,2013-06-05 06:14:00,
2013-06-05 02:19:00,76.7,74.2,29.96,ESE,117,4.0,11.0,92,0.00,,BKN040,0.00,VWS V12.08,2013-06-05 06:19:00,
2013-06-05 02:24:00,76.7,74.2,29.95,SE,144,9.0,9.0,92,0.00,,BKN040,0.00,VWS V12.08,2013-06-05 06:24:00,
2013-06-05 02:30:00,76.6,74.1,29.95,SE,126,5.0,9.0,92,0.00,,BKN040,0.00,VWS V12.08,2013-06-05 06:30:00,
2013-06-05 02:39:00,76.5,74.0,29.95,ESE,123,4.0,9.0,92,0.00,,BKN040,0.00,VWS V12.08,2013-06-05 06:39:00,
2013-06-05 02:44:00,76.4,73.9,29.95,ESE,121,3.0,7.0,92,0.00,,BKN040,0.00,VWS V12.08,2013-06-05 06:44:00,
2013-06-05 02:49:00,76.4,74.2,29.95,ESE,115,2.0,7.0,93,0.00,,BKN040,0.00,VWS V12.08,2013-06-05 06:49:00,
2013-06-05 02:54:00,76.4,74.2,29.95,ESE,117,2.0,7.0,93,0.00,,BKN040,0.00,VWS V12.08,2013-06-05 06:54:00,
2013-06-05 02:59:00,76.4,74.2,29.95,ESE,122,4.0,10.0,93,0.00,,BKN040,0.00,VWS V12.08,2013-06-05 06:59:00,
2013-06-05 03:05:00,76.4,74.2,29.95,ESE,119,1.0,7.0,93,0.00,,BKN040,0.00,VWS V12.08,2013-06-05 07:05:00,
2013-06-05 03:10:00,76.4,74.2,29.95,ESE,113,2.0,6.0,93,0.00,,BKN040,0.00,VWS V12.08,2013-06-05 07:10:00,
2013-06-05 03:15:00,76.3,74.1,29.94,SE,146,3.0,8.0,93,0.00,,BKN040,0.00,VWS V12.08,2013-06-05 07:15:00,
2013-06-05 03:20:00,76.2,74.0,29.94,SE,144,1.0,4.0,93,0.00,,BKN040,0.00,VWS V12.08,2013-06-05 07:20:00,
2013-06-05 03:25:00,76.2,74.0,29.94,ESE,119,2.0,8.0,93,0.00,,BKN040,0.00,VWS V12.08,2013-06-05 07:25:00,
2013-06-05 03:30:00,76.2,74.0,29.94,ESE,120,3.0,7.0,93,0.00,,BKN040,0.00,VWS V12.08,2013-06-05 07:30:00,
2013-06-05 03:35:00,76.2,74.0,29.94,ESE,116,5.0,5.0,93,0.00,,BKN040,0.00,VWS V12.08,2013-06-05 07:35:00,
2013-06-05 03:40:00,76.2,74.0,29.94,SE,129,7.0,7.0,93,0.00,,BKN040,0.00,VWS V12.08,2013-06-05 07:40:00,
2013-06-05 03:45:00,76.2,74.0,29.94,ESE,119,3.0,7.0,93,0.00,,BKN040,0.00,VWS V12.08,2013-06-05 07:45:00,
2013-06-05 03:59:00,76.0,73.8,29.93,ESE,117,3.0,7.0,93,0.00,,BKN040,0.00,VWS V12.08,2013-06-05 07:59:00,
2013-06-05 04:04:00,76.0,74.2,29.93,ESE,113,1.0,5.0,94,0.00,,BKN040,0.00,VWS V12.08,2013-06-05 08:04:00,
2013-06-05 04:09:00,75.9,74.1,29.93,ESE,121,1.0,8.0,94,0.00,,BKN040,0.00,VWS V12.08,2013-06-05 08:09:00,
2013-06-05 04:14:00,75.9,74.1,29.93,ESE,121,1.0,5.0,94,0.00,,BKN040,0.00,VWS V12.08,2013-06-05 08:14:00,
2013-06-05 04:19:00,75.8,73.9,29.93,ESE,121,2.0,4.0,94,0.00,,BKN040,0.00,VWS V12.08,2013-06-05 08:19:00,
2013-06-05 04:24:00,75.8,73.9,29.92,ESE,116,3.0,7.0,94,0.00,,BKN040,0.00,VWS V12.08,2013-06-05 08:24:00,
2013-06-05 04:30:00,75.8,73.9,29.92,ESE,119,3.0,7.0,94,0.00,,BKN040,0.00,VWS V12.08,2013-06-05 08:30:00,
2013-06-05 04:39:00,75.9,74.1,29.92,ESE,121,3.0,7.0,94,0.00,,BKN040,0.00,VWS V12.08,2013-06-05 08:39:00,
2013-06-05 04:44:00,75.9,74.1,29.92,ESE,119,4.0,7.0,94,0.00,,BKN040,0.00,VWS V12.08,2013-06-05 08:44:00,
2013-06-05 04:49:00,76.0,74.2,29.92,ESE,121,2.0,4.0,94,0.00,,BKN040,0.00,VWS V12.08,2013-06-05 08:49:00,
2013-06-05 04:54:00,76.0,74.2,29.92,ESE,123,2.0,5.0,94,0.00,,BKN040,0.00,VWS V12.08,2013-06-05 08:54:00,
2013-06-05 04:59:00,76.0,74.2,29.91,ESE,123,1.0,5.0,94,0.00,,BKN040,0.00,VWS V12.08,2013-06-05 08:59:00,
2013-06-05 05:05:00,76.0,74.2,29.91,ESE,116,3.0,7.0,94,0.00,,BKN040,0.00,VWS V12.08,2013-06-05 09:05:00,
2013-06-05 05:10:00,76.0,74.2,29.91,SE,131,2.0,6.0,94,0.00,,BKN040,0.00,VWS V12.08,2013-06-05 09:10:00,
2013-06-05 05:15:00,76.0,74.2,29.91,SE,133,0.0,4.0,94,0.00,,BKN040,0.00,VWS V12.08,2013-06-05 09:15:00,
2013-06-05 05:20:00,76.0,74.2,29.91,SE,124,3.0,7.0,94,0.00,,BKN040,0.00,VWS V12.08,2013-06-05 09:20:00,
2013-06-05 05:25:00,76.0,74.2,29.91,ESE,115,4.0,9.0,94,0.00,,BKN040,0.00,VWS V12.08,2013-06-05 09:25:00,
2013-06-05 05:30:00,76.0,74.2,29.91,SE,126,5.0,9.0,94,0.00,,BKN040,0.00,VWS V12.08,2013-06-05 09:30:00,
2013-06-05 05:35:00,76.0,74.2,29.91,ESE,122,2.0,6.0,94,0.00,,BKN040,0.00,VWS V12.08,2013-06-05 09:35:00,
2013-06-05 05:40:00,75.9,74.1,29.91,ESE,112,3.0,9.0,94,0.00,,BKN040,0.00,VWS V12.08,2013-06-05 09:40:00,
2013-06-05 05:45:00,75.9,74.1,29.91,ESE,112,2.0,8.0,94,0.01,,BKN040,0.01,VWS V12.08,2013-06-05 09:45:00,
2013-06-05 05:50:00,75.9,74.1,29.91,ESE,120,8.0,8.0,94,0.01,,BKN040,0.01,VWS V12.08,2013-06-05 09:50:00,
2013-06-05 05:55:00,75.9,74.1,29.91,ESE,117,3.0,8.0,94,0.01,,BKN040,0.01,VWS V12.08,2013-06-05 09:55:00,
2013-06-05 06:00:00,75.9,74.4,29.91,SE,132,5.0,8.0,95,0.01,,BKN040,0.01,VWS V12.08,2013-06-05 10:00:00,
2013-06-05 06:05:00,75.9,74.4,29.91,ESE,113,5.0,8.0,95,0.01,,BKN040,0.01,VWS V12.08,2013-06-05 10:05:00,
2013-06-05 06:10:00,75.9,74.4,29.91,ESE,114,3.0,5.0,95,0.01,,BKN040,0.01,VWS V12.08,2013-06-05 10:10:00,
2013-06-05 06:15:00,75.9,74.4,29.91,ESE,117,4.0,8.0,95,0.01,,BKN040,0.01,VWS V12.08,2013-06-05 10:15:00,
2013-06-05 06:20:00,75.9,74.4,29.91,ESE,116,2.0,7.0,95,0.01,,BKN040,0.01,VWS V12.08,2013-06-05 10:20:00,
2013-06-05 06:25:00,76.0,74.5,29.91,ESE,109,4.0,9.0,95,0.01,,BKN040,0.01,VWS V12.08,2013-06-05 10:25:00,
2013-06-05 06:30:00,76.0,74.5,29.91,ESE,121,5.0,7.0,95,0.01,,BKN040,0.01,VWS V12.08,2013-06-05 10:30:00,
2013-06-05 06:35:00,76.0,74.5,29.91,ESE,121,3.0,8.0,95,0.01,,BKN040,0.01,VWS V12.08,2013-06-05 10:35:00,
2013-06-05 06:40:00,76.0,74.5,29.91,ESE,117,5.0,7.0,95,0.01,,BKN040,0.01,VWS V12.08,2013-06-05 10:40:00,
2013-06-05 06:45:00,76.0,74.5,29.91,ESE,117,2.0,8.0,95,0.01,,BKN040,0.01,VWS V12.08,2013-06-05 10:45:00,
2013-06-05 06:50:00,76.1,74.6,29.91,ESE,113,1.0,9.0,95,0.00,,BKN040,0.01,VWS V12.08,2013-06-05 10:50:00,
2013-06-05 06:55:00,76.1,74.2,29.92,SE,124,3.0,8.0,94,0.00,,BKN040,0.01,VWS V12.08,2013-06-05 10:55:00,
2013-06-05 07:00:00,76.1,74.6,29.92,SE,125,2.0,8.0,95,0.00,,BKN040,0.01,VWS V12.08,2013-06-05 11:00:00,
2013-06-05 07:05:00,76.2,74.3,29.92,SE,128,2.0,6.0,94,0.00,,BKN040,0.01,VWS V12.08,2013-06-05 11:05:00,
2013-06-05 07:10:00,76.2,74.3,29.92,SE,126,2.0,6.0,94,0.00,,BKN040,0.01,VWS V12.08,2013-06-05 11:10:00,
2013-06-05 07:15:00,76.2,74.3,29.92,SE,139,3.0,7.0,94,0.00,,BKN040,0.01,VWS V12.08,2013-06-05 11:15:00,
2013-06-05 07:20:00,76.3,74.8,29.93,SE,137,3.0,6.0,95,0.00,,BKN040,0.01,VWS V12.08,2013-06-05 11:20:00,
2013-06-05 07:25:00,76.3,74.8,29.93,SE,136,1.0,5.0,95,0.00,,BKN040,0.01,VWS V12.08,2013-06-05 11:25:00,
2013-06-05 07:30:00,76.3,74.8,29.93,SE,128,3.0,6.0,95,0.00,,BKN040,0.01,VWS V12.08,2013-06-05 11:30:00,
2013-06-05 07:35:00,76.3,74.8,29.93,ESE,123,4.0,10.0,95,0.00,,BKN040,0.01,VWS V12.08,2013-06-05 11:35:00,
2013-06-05 07:40:00,76.4,74.9,29.92,ESE,115,3.0,8.0,95,0.00,,BKN040,0.01,VWS V12.08,2013-06-05 11:40:00,
2013-06-05 07:45:00,76.4,74.9,29.92,ESE,111,3.0,9.0,95,0.00,,BKN040,0.01,VWS V12.08,2013-06-05 11:45:00,
2013-06-05 07:50:00,76.4,74.6,29.93,ESE,111,3.0,5.0,94,0.00,,BKN040,0.01,VWS V12.08,2013-06-05 11:50:00,
2013-06-05 07:55:00,76.4,74.6,29.93,ESE,115,4.0,7.0,94,0.00,,BKN040,0.01,VWS V12.08,2013-06-05 11:55:00,
2013-06-05 08:00:00,76.5,74.7,29.93,ESE,115,4.0,9.0,94,0.00,,BKN040,0.01,VWS V12.08,2013-06-05 12:00:00,
2013-06-05 08:05:00,76.6,74.8,29.93,ESE,115,1.0,11.0,94,0.00,,BKN040,0.01,VWS V12.08,2013-06-05 12:05:00,
2013-06-05 08:10:00,76.7,74.8,29.93,ESE,113,8.0,9.0,94,0.00,,BKN040,0.01,VWS V12.08,2013-06-05 12:10:00,
2013-06-05 08:15:00,76.7,74.5,29.93,ESE,120,3.0,11.0,93,0.00,,BKN040,0.01,VWS V12.08,2013-06-05 12:15:00,
2013-06-05 08:20:00,76.7,74.5,29.93,SE,126,3.0,10.0,93,0.00,,BKN040,0.01,VWS V12.08,2013-06-05 12:20:00,
2013-06-05 08:25:00,76.7,74.5,29.93,ESE,121,7.0,10.0,93,0.00,,BKN040,0.01,VWS V12.08,2013-06-05 12:25:00,
2013-06-05 08:30:00,76.8,74.3,29.93,ESE,113,2.0,8.0,92,0.00,,BKN040,0.01,VWS V12.08,2013-06-05 12:30:00,
2013-06-05 08:35:00,76.9,74.4,29.93,East,96,10.0,14.0,92,0.00,,BKN040,0.01,VWS V12.08,2013-06-05 12:35:00,
2013-06-05 08:40:00,77.0,74.5,29.94,ESE,114,4.0,10.0,92,0.00,,BKN040,0.01,VWS V12.08,2013-06-05 12:40:00,
2013-06-05 08:45:00,77.0,74.2,29.94,SE,124,10.0,12.0,91,0.00,,BKN040,0.01,VWS V12.08,2013-06-05 12:45:00,
2013-06-05 08:50:00,77.0,74.2,29.94,ESE,113,3.0,12.0,91,0.00,,BKN040,0.01,VWS V12.08,2013-06-05 12:50:00,
2013-06-05 08:55:00,77.0,73.8,29.94,ESE,109,4.0,9.0,90,0.00,,BKN040,0.01,VWS V12.08,2013-06-05 12:55:00,
2013-06-05 09:00:00,76.9,73.8,29.94,ESE,106,7.0,11.0,90,0.00,,BKN040,0.01,VWS V12.08,2013-06-05 13:00:00,
2013-06-05 09:05:00,76.9,73.8,29.94,ESE,111,7.0,10.0,90,0.00,,BKN040,0.01,VWS V12.08,2013-06-05 13:05:00,
2013-06-05 09:10:00,76.9,73.8,29.95,SSE,148,5.0,10.0,90,0.00,,BKN040,0.01,VWS V12.08,2013-06-05 13:10:00,
2013-06-05 09:15:00,76.9,73.8,29.95,SE,124,3.0,9.0,90,0.01,,BKN040,0.02,VWS V12.08,2013-06-05 13:15:00,
2013-06-05 09:20:00,77.0,73.8,29.95,SE,134,3.0,11.0,90,0.01,,BKN040,0.02,VWS V12.08,2013-06-05 13:20:00,
2013-06-05 09:25:00,77.0,73.8,29.95,SE,128,8.0,9.0,90,0.01,,BKN040,0.02,VWS V12.08,2013-06-05 13:25:00,
2013-06-05 09:30:00,77.0,74.2,29.95,ESE,120,5.0,10.0,91,0.01,,BKN040,0.02,VWS V12.08,2013-06-05 13:30:00,
2013-06-05 09:35:00,77.0,74.2,29.95,SE,132,6.0,9.0,91,0.01,,BKN040,0.02,VWS V12.08,2013-06-05 13:35:00,
2013-06-05 09:40:00,77.1,74.3,29.95,ESE,122,4.0,12.0,91,0.01,,BKN040,0.02,VWS V12.08,2013-06-05 13:40:00,
2013-06-05 09:45:00,77.2,74.4,29.94,ESE,120,3.0,10.0,91,0.01,,BKN040,0.02,VWS V12.08,2013-06-05 13:45:00,
2013-06-05 09:50:00,77.5,74.7,29.94,ESE,121,5.0,15.0,91,0.01,,BKN040,0.02,VWS V12.08,2013-06-05 13:50:00,
2013-06-05 09:55:00,77.8,75.0,29.94,ESE,113,4.0,12.0,91,0.01,,BKN040,0.02,VWS V12.08,2013-06-05 13:55:00,
2013-06-05 10:00:00,78.0,75.2,29.94,ESE,107,8.0,13.0,91,0.01,,BKN040,0.02,VWS V12.08,2013-06-05 14:00:00,
2013-06-05 10:05:00,78.2,75.0,29.94,ESE,103,5.0,15.0,90,0.01,,BKN040,0.02,VWS V12.08,2013-06-05 14:05:00,
2013-06-05 10:10:00,78.3,75.1,29.93,ESE,109,7.0,12.0,90,0.01,,BKN040,0.02,VWS V12.08,2013-06-05 14:10:00,
2013-06-05 10:15:00,78.3,75.1,29.94,ESE,110,2.0,10.0,90,0.01,,BKN040,0.02,VWS V12.08,2013-06-05 14:15:00,
2013-06-05 10:20:00,78.2,75.4,29.95,SE,140,4.0,8.0,91,0.00,,BKN040,0.02,VWS V12.08,2013-06-05 14:20:00,
2013-06-05 10:25:00,78.0,75.2,29.95,ESE,123,9.0,9.0,91,0.00,,BKN040,0.02,VWS V12.08,2013-06-05 14:25:00,
2013-06-05 10:30:00,78.0,75.2,29.96,ESE,114,7.0,10.0,91,0.00,,BKN040,0.02,VWS V12.08,2013-06-05 14:30:00,
2013-06-05 10:35:00,78.0,75.2,29.96,ESE,121,5.0,10.0,91,0.00,,BKN040,0.02,VWS V12.08,2013-06-05 14:35:00,
2013-06-05 10:40:00,78.2,75.4,29.96,SE,134,3.0,10.0,91,0.00,,BKN040,0.02,VWS V12.08,2013-06-05 14:40:00,
2013-06-05 10:45:00,78.4,75.2,29.96,ESE,111,11.0,13.0,90,0.00,,BKN040,0.02,VWS V12.08,2013-06-05 14:45:00,
2013-06-05 10:50:00,78.6,75.4,29.96,SE,127,3.0,12.0,90,0.00,,BKN040,0.02,VWS V12.08,2013-06-05 14:50:00,
2013-06-05 10:55:00,78.7,75.2,29.96,SE,128,8.0,15.0,89,0.00,,BKN040,0.02,VWS V12.08,2013-06-05 14:55:00,
2013-06-05 11:00:00,78.7,75.2,29.96,ESE,119,2.0,13.0,89,0.00,,BKN040,0.02,VWS V12.08,2013-06-05 15:00:00,
2013-06-05 11:05:00,78.7,75.2,29.96,East,86,3.0,13.0,89,0.00,,BKN040,0.02,VWS V12.08,2013-06-05 15:05:00,
2013-06-05 11:10:00,78.6,75.1,29.96,ESE,109,5.0,12.0,89,0.00,,BKN040,0.02,VWS V12.08,2013-06-05 15:10:00,
2013-06-05 11:15:00,78.4,74.6,29.96,ESE,114,7.0,14.0,88,0.00,,BKN040,0.02,VWS V12.08,2013-06-05 15:15:00,
2013-06-05 11:20:00,78.5,74.3,29.96,ESE,123,5.0,11.0,87,0.00,,BKN040,0.02,VWS V12.08,2013-06-05 15:20:00,
2013-06-05 11:25:00,78.6,74.4,29.96,SE,135,5.0,11.0,87,0.00,,BKN040,0.02,VWS V12.08,2013-06-05 15:25:00,
2013-06-05 11:30:00,78.6,74.4,29.96,ESE,108,10.0,12.0,87,0.00,,BKN040,0.02,VWS V12.08,2013-06-05 15:30:00,
2013-06-05 11:35:00,78.5,74.7,29.96,ESE,112,7.0,10.0,88,0.00,,BKN040,0.02,VWS V12.08,2013-06-05 15:35:00,
2013-06-05 11:40:00,78.4,74.6,29.96,ESE,118,4.0,9.0,88,0.00,,BKN040,0.02,VWS V12.08,2013-06-05 15:40:00,
2013-06-05 11:45:00,78.3,74.8,29.96,ESE,118,4.0,8.0,89,0.01,,BKN040,0.03,VWS V12.08,2013-06-05 15:45:00,
2013-06-05 11:50:00,78.2,75.0,29.95,ESE,118,4.0,8.0,90,0.01,,BKN040,0.03,VWS V12.08,2013-06-05 15:50:00,
2013-06-05 11:55:00,78.2,75.0,29.95,ESE,113,7.0,9.0,90,0.01,,BKN040,0.03,VWS V12.08,2013-06-05 15:55:00,
2013-06-05 12:00:00,78.2,75.0,29.95,ESE,115,4.0,9.0,90,0.01,,BKN040,0.03,VWS V12.08,2013-06-05 16:00:00,
2013-06-05 12:05:00,78.4,75.2,29.95,ESE,118,5.0,10.0,90,0.01,,BKN040,0.03,VWS V12.08,2013-06-05 16:05:00,
2013-06-05 12:10:00,78.6,75.4,29.95,ESE,116,2.0,11.0,90,0.01,,BKN040,0.03,VWS V12.08,2013-06-05 16:10:00,
2013-06-05 12:15:00,78.8,75.6,29.95,ESE,102,5.0,8.0,90,0.01,,BKN040,0.03,VWS V12.08,2013-06-05 16:15:00,
2013-06-05 12:20:00,78.8,75.6,29.95,ESE,117,4.0,9.0,90,0.01,,BKN040,0.03,VWS V12.08,2013-06-05 16:20:00,
2013-06-05 12:25:00,78.9,75.7,29.94,ESE,111,5.0,10.0,90,0.01,,BKN040,0.03,VWS V12.08,2013-06-05 16:25:00,
2013-06-05 12:30:00,79.0,75.8,29.95,ESE,103,4.0,7.0,90,0.01,,BKN040,0.03,VWS V12.08,2013-06-05 16:30:00,
2013-06-05 12:35:00,78.9,75.7,29.94,ESE,121,9.0,10.0,90,0.01,,BKN040,0.03,VWS V12.08,2013-06-05 16:35:00,
2013-06-05 12:40:00,79.0,75.8,29.94,East,94,5.0,10.0,90,0.01,,BKN040,0.03,VWS V12.08,2013-06-05 16:40:00,
2013-06-05 12:45:00,78.9,75.7,29.95,ESE,110,9.0,10.0,90,0.01,,BKN040,0.03,VWS V12.08,2013-06-05 16:45:00,
2013-06-05 12:50:00,78.9,75.4,29.95,ESE,112,5.0,10.0,89,0.00,,BKN040,0.03,VWS V12.08,2013-06-05 16:50:00,
2013-06-05 12:55:00,78.8,75.6,29.95,ESE,116,5.0,11.0,90,0.00,,BKN040,0.03,VWS V12.08,2013-06-05 16:55:00,
2013-06-05 13:00:00,78.9,75.7,29.95,ESE,114,3.0,13.0,90,0.00,,BKN040,0.03,VWS V12.08,2013-06-05 17:00:00,
2013-06-05 13:05:00,78.7,75.5,29.95,ESE,115,4.0,13.0,90,0.00,,BKN040,0.03,VWS V12.08,2013-06-05 17:05:00,
2013-06-05 13:10:00,78.6,75.4,29.95,ESE,123,5.0,13.0,90,0.00,,BKN040,0.03,VWS V12.08,2013-06-05 17:10:00,
2013-06-05 13:15:00,78.6,75.4,29.95,ESE,113,4.0,9.0,90,0.00,,BKN040,0.03,VWS V12.08,2013-06-05 17:15:00,
2013-06-05 13:20:00,78.5,75.7,29.95,ESE,112,8.0,9.0,91,0.01,,BKN040,0.04,VWS V12.08,2013-06-05 17:20:00,
2013-06-05 13:25:00,78.4,75.6,29.95,ESE,117,5.0,11.0,91,0.01,,BKN040,0.04,VWS V12.08,2013-06-05 17:25:00,
2013-06-05 13:30:00,78.4,75.6,29.95,ESE,113,4.0,10.0,91,0.01,,BKN040,0.04,VWS V12.08,2013-06-05 17:30:00,
2013-06-05 13:35:00,78.3,75.5,29.95,ESE,120,3.0,10.0,91,0.01,,BKN040,0.04,VWS V12.08,2013-06-05 17:35:00,
2013-06-05 13:40:00,78.3,75.8,29.94,ESE,123,5.0,11.0,92,0.01,,BKN040,0.04,VWS V12.08,2013-06-05 17:40:00,
2013-06-05 13:45:00,78.2,75.7,29.94,SE,124,2.0,10.0,92,0.01,,BKN040,0.04,VWS V12.08,2013-06-05 17:45:00,
2013-06-05 13:50:00,78.1,75.6,29.94,ESE,117,7.0,9.0,92,0.02,,BKN040,0.05,VWS V12.08,2013-06-05 17:50:00,
2013-06-05 13:55:00,77.9,75.4,29.94,East,88,6.0,11.0,92,0.02,,BKN040,0.05,VWS V12.08,2013-06-05 17:55:00,
2013-06-05 14:00:00,77.8,75.3,29.94,SE,128,4.0,10.0,92,0.02,,BKN040,0.05,VWS V12.08,2013-06-05 18:00:00,
2013-06-05 14:05:00,77.5,75.0,29.94,ESE,119,8.0,12.0,92,0.02,,BKN040,0.05,VWS V12.08,2013-06-05 18:05:00,
2013-06-05 14:10:00,77.5,75.0,29.94,ESE,119,7.0,14.0,92,0.03,,BKN040,0.06,VWS V12.08,2013-06-05 18:10:00,
2013-06-05 14:15:00,77.3,74.8,29.94,East,95,10.0,12.0,92,0.04,,BKN040,0.07,VWS V12.08,2013-06-05 18:15:00,
2013-06-05 14:20:00,77.2,74.7,29.94,ESE,117,5.0,13.0,92,0.04,,BKN040,0.07,VWS V12.08,2013-06-05 18:20:00,
2013-06-05 14:25:00,77.2,74.7,29.94,ESE,117,4.0,13.0,92,0.03,,BKN040,0.07,VWS V12.08,2013-06-05 18:25:00,
2013-06-05 14:30:00,77.3,74.8,29.93,SE,128,8.0,13.0,92,0.04,,BKN040,0.08,VWS V12.08,2013-06-05 18:30:00,
2013-06-05 14:35:00,77.0,74.5,29.93,ESE,105,3.0,13.0,92,0.04,,BKN040,0.08,VWS V12.08,2013-06-05 18:35:00,
2013-06-05 14:40:00,77.1,74.6,29.93,ESE,108,9.0,11.0,92,0.04,,BKN040,0.08,VWS V12.08,2013-06-05 18:40:00,
2013-06-05 14:45:00,76.9,74.4,29.93,East,101,9.0,13.0,92,0.04,,BKN040,0.08,VWS V12.08,2013-06-05 18:45:00,
2013-06-05 14:50:00,76.7,73.9,29.92,ESE,109,7.0,10.0,91,0.05,,BKN040,0.09,VWS V12.08,2013-06-05 18:50:00,
2013-06-05 14:55:00,76.6,73.8,29.92,East,92,6.0,16.0,91,0.04,,BKN040,0.09,VWS V12.08,2013-06-05 18:55:00,
2013-06-05 15:00:00,76.8,74.0,29.91,East,84,9.0,13.0,91,0.04,,BKN040,0.09,VWS V12.08,2013-06-05 19:00:00,
2013-06-05 15:05:00,77.0,74.5,29.91,East,99,7.0,13.0,92,0.04,,BKN040,0.09,VWS V12.08,2013-06-05 19:05:00,
2013-06-05 15:10:00,77.2,74.7,29.91,ENE,77,8.0,13.0,92,0.04,,BKN040,0.09,VWS V12.08,2013-06-05 19:10:00,
2013-06-05 15:15:00,77.4,74.9,29.91,ENE,62,7.0,11.0,92,0.03,,BKN040,0.09,VWS V12.08,2013-06-05 19:15:00,
2013-06-05 15:20:00,77.5,75.0,29.91,ESE,107,3.0,12.0,92,0.02,,BKN040,0.09,VWS V12.08,2013-06-05 19:20:00,
2013-06-05 15:25:00,77.7,75.2,29.91,East,97,6.0,11.0,92,0.02,,BKN040,0.09,VWS V12.08,2013-06-05 19:25:00,
2013-06-05 15:30:00,77.8,75.3,29.90,East,81,5.0,10.0,92,0.02,,BKN040,0.09,VWS V12.08,2013-06-05 19:30:00,
2013-06-05 15:35:00,77.8,75.3,29.90,ENE,77,8.0,10.0,92,0.01,,BKN040,0.09,VWS V12.08,2013-06-05 19:35:00,
2013-06-05 15:40:00,77.8,75.3,29.90,ENE,70,5.0,9.0,92,0.01,,BKN040,0.09,VWS V12.08,2013-06-05 19:40:00,
2013-06-05 15:45:00,77.9,75.7,29.90,ENE,71,7.0,10.0,93,0.01,,BKN040,0.09,VWS V12.08,2013-06-05 19:45:00,
2013-06-05 15:50:00,77.8,75.6,29.90,East,87,7.0,10.0,93,0.01,,BKN040,0.09,VWS V12.08,2013-06-05 19:50:00,
2013-06-05 15:55:00,77.8,75.6,29.90,East,92,5.0,9.0,93,0.00,,BKN040,0.09,VWS V12.08,2013-06-05 19:55:00,
2013-06-05 16:00:00,77.7,75.5,29.90,East,88,3.0,12.0,93,0.00,,BKN040,0.09,VWS V12.08,2013-06-05 20:00:00,
2013-06-05 16:05:00,77.5,75.0,29.90,ESE,102,4.0,10.0,92,0.00,,BKN040,0.09,VWS V12.08,2013-06-05 20:05:00,
2013-06-05 16:10:00,77.4,74.9,29.90,East,94,3.0,11.0,92,0.01,,BKN040,0.10,VWS V12.08,2013-06-05 20:10:00,
2013-06-05 16:15:00,77.3,74.8,29.90,East,85,7.0,10.0,92,0.01,,BKN040,0.10,VWS V12.08,2013-06-05 20:15:00,
2013-06-05 16:20:00,77.1,74.6,29.90,East,95,5.0,9.0,92,0.01,,BKN040,0.10,VWS V12.08,2013-06-05 20:20:00,
2013-06-05 16:25:00,77.1,74.6,29.89,ENE,76,4.0,10.0,92,0.01,,BKN040,0.10,VWS V12.08,2013-06-05 20:25:00,
2013-06-05 16:30:00,77.1,74.6,29.89,East,85,3.0,8.0,92,0.01,,BKN040,0.10,VWS V12.08,2013-06-05 20:30:00,
2013-06-05 16:35:00,76.9,74.4,29.88,East,98,6.0,10.0,92,0.02,,BKN040,0.11,VWS V12.08,2013-06-05 20:35:00,
2013-06-05 16:40:00,76.8,74.6,29.88,ENE,78,5.0,10.0,93,0.02,,BKN040,0.11,VWS V12.08,2013-06-05 20:40:00,
2013-06-05 16:45:00,76.6,74.4,29.88,East,79,9.0,13.0,93,0.02,,BKN040,0.11,VWS V12.08,2013-06-05 20:45:00,
2013-06-05 16:50:00,76.5,74.0,29.87,ENE,74,3.0,12.0,92,0.02,,BKN040,0.11,VWS V12.08,2013-06-05 20:50:00,
2013-06-05 16:55:00,76.4,73.9,29.87,ENE,71,7.0,11.0,92,0.02,,BKN040,0.11,VWS V12.08,2013-06-05 20:55:00,
2013-06-05 17:00:00,76.4,73.9,29.87,ENE,74,7.0,11.0,92,0.02,,BKN040,0.11,VWS V12.08,2013-06-05 21:00:00,
2013-06-05 17:05:00,76.3,73.8,29.86,ENE,78,9.0,11.0,92,0.02,,BKN040,0.11,VWS V12.08,2013-06-05 21:05:00,
2013-06-05 17:10:00,76.3,73.8,29.86,East,80,6.0,11.0,92,0.02,,BKN040,0.11,VWS V12.08,2013-06-05 21:10:00,
2013-06-05 17:20:00,76.4,73.9,29.86,East,85,5.0,10.0,92,0.01,,BKN040,0.11,VWS V12.08,2013-06-05 21:20:00,
2013-06-05 17:25:00,76.5,73.7,29.85,East,85,7.0,10.0,91,0.01,,BKN040,0.11,VWS V12.08,2013-06-05 21:25:00,
2013-06-05 17:30:00,76.5,73.7,29.85,East,95,5.0,11.0,91,0.01,,BKN040,0.11,VWS V12.08,2013-06-05 21:30:00,
2013-06-05 17:35:00,76.6,73.8,29.85,East,99,6.0,11.0,91,0.01,,BKN040,0.11,VWS V12.08,2013-06-05 21:35:00,
2013-06-05 17:40:00,76.6,73.8,29.85,ENE,76,7.0,12.0,91,0.00,,BKN040,0.11,VWS V12.08,2013-06-05 21:40:00,
2013-06-05 17:45:00,76.7,73.6,29.85,East,90,10.0,13.0,90,0.00,,BKN040,0.11,VWS V12.08,2013-06-05 21:45:00,
2013-06-05 18:00:00,76.9,73.8,29.84,East,87,7.0,12.0,90,0.00,,BKN040,0.11,VWS V12.08,2013-06-05 22:00:00,
2013-06-05 18:04:00,77.0,73.8,29.85,East,85,5.0,10.0,90,0.00,,BKN040,0.11,VWS V12.08,2013-06-05 22:04:00,
2013-06-05 18:09:00,77.1,73.9,29.85,ESE,113,10.0,10.0,90,0.00,,BKN040,0.11,VWS V12.08,2013-06-05 22:09:00,
2013-06-05 18:19:00,77.2,74.0,29.85,East,97,7.0,10.0,90,0.00,,BKN040,0.11,VWS V12.08,2013-06-05 22:19:00,
2013-06-05 18:24:00,77.3,74.1,29.85,East,79,5.0,11.0,90,0.00,,BKN040,0.11,VWS V12.08,2013-06-05 22:24:00,
2013-06-05 18:30:00,77.3,74.5,29.85,East,88,5.0,9.0,91,0.00,,BKN040,0.11,VWS V12.08,2013-06-05 22:30:00,
2013-06-05 18:35:00,77.3,74.5,29.85,East,100,6.0,9.0,91,0.00,,BKN040,0.11,VWS V12.08,2013-06-05 22:35:00,
2013-06-05 18:40:00,77.3,74.5,29.84,ESE,117,5.0,9.0,91,0.00,,BKN040,0.11,VWS V12.08,2013-06-05 22:40:00,
2013-06-05 18:45:00,77.3,74.5,29.84,East,93,6.0,8.0,91,0.00,,BKN040,0.11,VWS V12.08,2013-06-05 22:45:00,
2013-06-05 18:55:00,77.3,74.8,29.84,ESE,107,3.0,11.0,92,0.00,,BKN040,0.11,VWS V12.08,2013-06-05 22:55:00,
2013-06-05 19:00:00,77.3,74.8,29.84,East,92,3.0,12.0,92,0.01,,BKN040,0.12,VWS V12.08,2013-06-05 23:00:00,
2013-06-05 19:05:00,77.2,74.7,29.84,ESE,107,7.0,10.0,92,0.01,,BKN040,0.12,VWS V12.08,2013-06-05 23:05:00,
2013-06-05 19:10:00,77.1,74.6,29.84,ENE,78,7.0,13.0,92,0.01,,BKN040,0.12,VWS V12.08,2013-06-05 23:10:00,
2013-06-05 19:15:00,77.1,74.9,29.85,ENE,77,10.0,12.0,93,0.01,,BKN040,0.12,VWS V12.08,2013-06-05 23:15:00,
2013-06-05 19:20:00,77.1,74.9,29.85,ESE,107,8.0,11.0,93,0.01,,BKN040,0.12,VWS V12.08,2013-06-05 23:20:00,
2013-06-05 19:25:00,77.1,74.9,29.85,East,86,7.0,10.0,93,0.01,,BKN040,0.12,VWS V12.08,2013-06-05 23:25:00,
2013-06-05 19:30:00,77.1,74.9,29.85,East,94,5.0,10.0,93,0.01,,BKN040,0.12,VWS V12.08,2013-06-05 23:30:00,
2013-06-05 19:35:00,77.1,74.9,29.86,East,86,7.0,11.0,93,0.01,,BKN040,0.12,VWS V12.08,2013-06-05 23:35:00,
2013-06-05 19:40:00,77.1,74.9,29.86,ESE,113,7.0,9.0,93,0.02,,BKN040,0.13,VWS V12.08,2013-06-05 23:40:00,
2013-06-05 19:45:00,77.1,75.2,29.86,ESE,107,3.0,11.0,94,0.03,,BKN040,0.14,VWS V12.08,2013-06-05 23:45:00,
2013-06-05 19:50:00,77.0,75.1,29.86,East,94,5.0,11.0,94,0.03,,BKN040,0.14,VWS V12.08,2013-06-05 23:50:00,
2013-06-05 20:00:00,77.0,75.1,29.86,East,89,5.0,11.0,94,0.03,,BKN040,0.14,VWS V12.08,2013-06-06 00:00:00,
2013-06-05 20:05:00,77.0,75.1,29.86,ESE,105,7.0,10.0,94,0.03,,BKN040,0.15,VWS V12.08,2013-06-06 00:05:00,
2013-06-05 20:10:00,77.0,75.1,29.86,East,85,5.0,9.0,94,0.03,,BKN040,0.15,VWS V12.08,2013-06-06 00:10:00,
2013-06-05 20:15:00,77.0,75.1,29.86,East,86,8.0,11.0,94,0.03,,BKN040,0.15,VWS V12.08,2013-06-06 00:15:00,
2013-06-05 20:20:00,77.0,75.5,29.86,East,98,7.0,11.0,95,0.03,,BKN040,0.15,VWS V12.08,2013-06-06 00:20:00,
2013-06-05 20:25:00,77.0,75.5,29.85,East,91,10.0,11.0,95,0.03,,BKN040,0.15,VWS V12.08,2013-06-06 00:25:00,
2013-06-05 20:30:00,76.9,75.4,29.85,East,101,5.0,15.0,95,0.04,,BKN040,0.16,VWS V12.08,2013-06-06 00:30:00,
2013-06-05 20:35:00,77.0,75.5,29.85,East,86,9.0,15.0,95,0.04,,BKN040,0.16,VWS V12.08,2013-06-06 00:35:00,
2013-06-05 20:40:00,76.9,75.4,29.85,ESE,119,5.0,15.0,95,0.05,,BKN040,0.17,VWS V12.08,2013-06-06 00:40:00,
2013-06-05 20:45:00,76.9,75.4,29.86,East,100,8.0,16.0,95,0.04,,BKN040,0.17,VWS V12.08,2013-06-06 00:45:00,
2013-06-05 20:50:00,76.9,75.4,29.86,ENE,76,7.0,14.0,95,0.03,,BKN040,0.17,VWS V12.08,2013-06-06 00:50:00,
2013-06-05 21:00:00,76.9,75.4,29.85,ESE,120,7.0,14.0,95,0.03,,BKN040,0.17,VWS V12.08,2013-06-06 01:00:00,
2013-06-05 21:05:00,76.9,75.4,29.85,East,100,5.0,11.0,95,0.04,,BKN040,0.18,VWS V12.08,2013-06-06 01:05:00,
2013-06-05 21:10:00,76.9,75.4,29.86,ESE,105,11.0,11.0,95,0.03,,BKN040,0.18,VWS V12.08,2013-06-06 01:10:00,
2013-06-05 21:15:00,76.8,75.3,29.86,ESE,123,9.0,14.0,95,0.03,,BKN040,0.18,VWS V12.08,2013-06-06 01:15:00,
2013-06-05 21:20:00,76.8,75.3,29.86,East,94,7.0,16.0,95,0.03,,BKN040,0.18,VWS V12.08,2013-06-06 01:20:00,
2013-06-05 21:25:00,76.7,75.2,29.86,East,90,13.0,14.0,95,0.03,,BKN040,0.18,VWS V12.08,2013-06-06 01:25:00,
2013-06-05 21:30:00,76.7,75.2,29.85,ESE,105,8.0,14.0,95,0.04,,BKN040,0.19,VWS V12.08,2013-06-06 01:30:00,
2013-06-05 21:35:00,76.7,75.2,29.85,East,101,8.0,17.0,95,0.03,,BKN040,0.19,VWS V12.08,2013-06-06 01:35:00,
2013-06-05 21:40:00,76.7,75.2,29.85,East,94,10.0,16.0,95,0.03,,BKN040,0.19,VWS V12.08,2013-06-06 01:40:00,
2013-06-05 21:45:00,76.7,75.2,29.85,East,97,9.0,14.0,95,0.02,,BKN040,0.19,VWS V12.08,2013-06-06 01:45:00,
2013-06-05 21:50:00,76.7,75.2,29.85,East,99,7.0,16.0,95,0.02,,BKN040,0.19,VWS V12.08,2013-06-06 01:50:00,
2013-06-05 22:00:00,76.7,75.5,29.85,East,101,15.0,15.0,96,0.02,,BKN040,0.19,VWS V12.08,2013-06-06 02:00:00,
2013-06-05 22:05:00,76.7,75.5,29.85,ESE,109,4.0,14.0,96,0.03,,BKN040,0.20,VWS V12.08,2013-06-06 02:05:00,
2013-06-05 22:10:00,76.7,75.5,29.85,ESE,118,5.0,14.0,96,0.02,,BKN040,0.20,VWS V12.08,2013-06-06 02:10:00,
2013-06-05 22:15:00,76.8,75.6,29.85,ESE,110,8.0,15.0,96,0.02,,BKN040,0.20,VWS V12.08,2013-06-06 02:15:00,
2013-06-05 22:20:00,76.9,75.7,29.85,ESE,107,4.0,17.0,96,0.02,,BKN040,0.20,VWS V12.08,2013-06-06 02:20:00,
2013-06-05 22:25:00,76.9,75.7,29.85,ESE,108,11.0,18.0,96,0.02,,BKN040,0.20,VWS V12.08,2013-06-06 02:25:00,
2013-06-05 22:30:00,76.9,75.7,29.85,ESE,113,8.0,15.0,96,0.02,,BKN040,0.20,VWS V12.08,2013-06-06 02:30:00,
2013-06-05 22:35:00,76.9,75.7,29.85,ESE,109,7.0,12.0,96,0.01,,BKN040,0.20,VWS V12.08,2013-06-06 02:35:00,
2013-06-05 22:40:00,76.8,75.3,29.86,SE,126,6.0,13.0,95,0.01,,BKN040,0.20,VWS V12.08,2013-06-06 02:40:00,
2013-06-05 22:45:00,76.8,75.6,29.86,SE,127,7.0,13.0,96,0.01,,BKN040,0.20,VWS V12.08,2013-06-06 02:45:00,
2013-06-05 22:59:00,76.9,75.7,29.86,ESE,114,10.0,15.0,96,0.02,,BKN040,0.21,VWS V12.08,2013-06-06 02:59:00,
2013-06-05 23:05:00,77.0,75.8,29.86,ESE,107,7.0,17.0,96,0.02,,BKN040,0.21,VWS V12.08,2013-06-06 03:05:00,
2013-06-05 23:10:00,77.0,75.8,29.86,East,90,7.0,12.0,96,0.01,,BKN040,0.21,VWS V12.08,2013-06-06 03:10:00,
2013-06-05 23:15:00,77.0,75.8,29.86,ENE,77,4.0,13.0,96,0.01,,BKN040,0.21,VWS V12.08,2013-06-06 03:15:00,
2013-06-05 23:20:00,77.1,75.9,29.85,ESE,111,10.0,14.0,96,0.02,,BKN040,0.22,VWS V12.08,2013-06-06 03:20:00,
2013-06-05 23:25:00,77.1,75.9,29.85,East,83,6.0,10.0,96,0.02,,BKN040,0.22,VWS V12.08,2013-06-06 03:25:00,
2013-06-05 23:30:00,77.1,75.9,29.85,ENE,74,7.0,17.0,96,0.02,,BKN040,0.22,VWS V12.08,2013-06-06 03:30:00,
2013-06-05 23:35:00,77.1,75.9,29.84,East,80,10.0,13.0,96,0.03,,BKN040,0.23,VWS V12.08,2013-06-06 03:35:00,
2013-06-05 23:40:00,77.1,75.9,29.84,ESE,119,9.0,19.0,96,0.04,,BKN040,0.24,VWS V12.08,2013-06-06 03:40:00,
2013-06-05 23:45:00,77.0,75.8,29.84,ESE,114,9.0,16.0,96,0.04,,BKN040,0.24,VWS V12.08,2013-06-06 03:45:00,
2013-06-05 23:50:00,76.9,75.4,29.84,ESE,121,8.0,15.0,95,0.05,,BKN040,0.25,VWS V12.08,2013-06-06 03:50:00,